Time;durP1;ratioP1;P1;durP2;ratioP2;P2;SDS_P1;SDS_P2;PMS_P1;PMS_P2;Temp;Humidity;BMP_temperature;BMP_pressure;BME280_temperature;BME280_humidity;BME280_pressure;Samples;Min_cycle;Max_cycle;Signal;HPM_P1;HPM_P2
2023/10/06 00:00:34;;;;;;;5.80;4.60;;;15.70;99.90;;;;;;4968277;28;20471;-67
2023/10/06 00:03:10;;;;;;;4.83;4.43;;;15.70;99.90;;;;;;4969954;28;20438;-67
2023/10/06 00:05:37;;;;;;;5.37;4.30;;;15.60;99.90;;;;;;4963887;28;20427;-67
2023/10/06 00:08:16;;;;;;;5.87;4.60;;;15.60;99.90;;;;;;4954887;28;20855;-67
2023/10/06 00:10:45;;;;;;;5.90;4.37;;;15.60;99.90;;;;;;4971210;28;20754;-67
2023/10/06 00:16:11;;;;;;;6.77;5.73;;;15.50;99.90;;;;;;4953517;28;20450;-67
2023/10/06 00:18:38;;;;;;;6.37;4.60;;;15.50;99.90;;;;;;4966010;28;20434;-66
2023/10/06 00:21:06;;;;;;;5.20;4.13;;;15.50;99.90;;;;;;4969599;28;20914;-66
2023/10/06 00:23:38;;;;;;;6.27;4.27;;;15.50;99.90;;;;;;4971718;28;20492;-66
2023/10/06 00:26:08;;;;;;;5.47;5.07;;;15.50;99.90;;;;;;4972326;28;20430;-66
2023/10/06 00:28:36;;;;;;;5.50;5.00;;;15.50;99.90;;;;;;4971260;28;20513;-67
2023/10/06 00:31:08;;;;;;;6.30;5.63;;;15.40;99.90;;;;;;4972975;28;20462;-67
2023/10/06 00:33:37;;;;;;;7.27;5.00;;;15.40;99.90;;;;;;4972692;28;20407;-66
2023/10/06 00:36:17;;;;;;;6.27;4.80;;;15.40;99.90;;;;;;4973444;28;20534;-66
2023/10/06 00:38:50;;;;;;;8.03;4.50;;;15.40;99.90;;;;;;4974590;28;20400;-66
2023/10/06 00:41:19;;;;;;;7.70;4.20;;;15.40;99.90;;;;;;4976974;28;20746;-67
2023/10/06 00:43:45;;;;;;;4.83;4.40;;;15.30;99.90;;;;;;4976001;28;20423;-66
2023/10/06 00:46:12;;;;;;;5.13;4.23;;;15.40;99.90;;;;;;4976552;28;20491;-66
2023/10/06 00:48:40;;;;;;;4.33;4.03;;;15.30;99.90;;;;;;4975727;28;20950;-66
2023/10/06 00:51:19;;;;;;;5.90;4.67;;;15.30;99.90;;;;;;4976606;28;20446;-66
2023/10/06 00:53:51;;;;;;;5.27;4.00;;;15.30;99.90;;;;;;4969642;28;21094;-66
2023/10/06 00:56:19;;;;;;;5.73;5.00;;;15.30;99.90;;;;;;4976362;28;20457;-66
2023/10/06 00:58:45;;;;;;;7.63;4.90;;;15.30;99.90;;;;;;4975691;28;21164;-66
2023/10/06 01:01:17;;;;;;;5.03;4.60;;;15.30;99.90;;;;;;4976296;28;20457;-66
2023/10/06 01:03:44;;;;;;;4.70;4.13;;;15.30;99.90;;;;;;4975702;28;20160;-66
2023/10/06 01:06:13;;;;;;;5.63;5.10;;;15.30;99.90;;;;;;4958605;28;20427;-66
2023/10/06 01:08:48;;;;;;;4.90;4.50;;;15.30;99.90;;;;;;4974957;28;20495;-65
2023/10/06 01:11:17;;;;;;;7.30;5.30;;;15.30;99.90;;;;;;4959849;28;20459;-66
2023/10/06 01:13:56;;;;;;;6.20;5.70;;;15.20;99.90;;;;;;4958433;28;20422;-66
2023/10/06 01:16:35;;;;;;;5.53;4.90;;;15.20;99.90;;;;;;4975991;28;20497;-67
2023/10/06 01:19:15;;;;;;;8.60;4.73;;;15.20;99.90;;;;;;4975528;28;20418;-66
2023/10/06 01:21:48;;;;;;;4.50;4.03;;;15.20;99.90;;;;;;4973720;28;20477;-66
2023/10/06 01:24:28;;;;;;;4.77;4.20;;;15.20;99.90;;;;;;4975209;28;20439;-66
2023/10/06 01:27:09;;;;;;;6.50;4.37;;;15.20;99.90;;;;;;4975211;28;20469;-66
2023/10/06 01:29:35;;;;;;;5.97;4.97;;;15.20;99.90;;;;;;4974679;28;20933;-66
2023/10/06 01:32:05;;;;;;;7.00;4.60;;;15.20;99.90;;;;;;4975877;28;20425;-66
2023/10/06 01:34:40;;;;;;;6.07;4.70;;;15.20;99.90;;;;;;4968613;28;20431;-65
2023/10/06 01:37:07;;;;;;;4.83;4.43;;;15.20;99.90;;;;;;4975624;28;20422;-67
2023/10/06 01:39:36;;;;;;;4.77;4.27;;;15.20;99.90;;;;;;4974989;28;20411;-66
2023/10/06 01:42:16;;;;;;;5.43;4.13;;;15.20;99.90;;;;;;4975794;28;20415;-73
2023/10/06 01:44:43;;;;;;;7.47;5.00;;;15.10;99.90;;;;;;4974998;28;20419;-66
2023/10/06 01:47:09;;;;;;;4.87;4.37;;;15.10;99.90;;;;;;4973660;28;20974;-66
2023/10/06 01:49:35;;;;;;;5.67;4.80;;;15.10;99.90;;;;;;4973806;28;20412;-65
2023/10/06 01:52:08;;;;;;;4.77;4.37;;;15.10;99.90;;;;;;4963470;28;20192;-65
2023/10/06 01:54:36;;;;;;;7.03;5.53;;;15.10;99.90;;;;;;4971430;28;20414;-65
2023/10/06 01:57:10;;;;;;;5.87;5.27;;;15.10;99.90;;;;;;4975023;28;20435;-66
2023/10/06 01:59:36;;;;;;;5.90;5.30;;;15.10;99.90;;;;;;4974752;28;20419;-66
2023/10/06 02:02:02;;;;;;;5.80;4.33;;;15.10;99.90;;;;;;4974218;28;20760;-66
2023/10/06 02:04:39;;;;;;;4.53;4.20;;;15.10;99.90;;;;;;4974810;28;20180;-66
2023/10/06 02:07:09;;;;;;;6.17;5.13;;;15.10;99.90;;;;;;4974551;28;20447;-66
2023/10/06 02:09:36;;;;;;;7.23;4.67;;;15.10;99.90;;;;;;4957179;28;20423;-65
2023/10/06 02:12:03;;;;;;;5.43;4.67;;;15.10;99.90;;;;;;4974509;28;20748;-66
2023/10/06 02:14:29;;;;;;;4.43;3.93;;;15.10;99.90;;;;;;4974644;28;20423;-66
2023/10/06 02:16:55;;;;;;;5.83;4.93;;;15.10;99.90;;;;;;4974034;28;20471;-67
2023/10/06 02:19:21;;;;;;;7.37;4.37;;;15.10;99.90;;;;;;4973790;28;20469;-67
2023/10/06 02:21:51;;;;;;;5.13;4.67;;;15.10;99.90;;;;;;4955414;28;20286;-65
2023/10/06 02:24:17;;;;;;;5.10;4.13;;;15.20;99.90;;;;;;4974805;28;20411;-65
2023/10/06 02:26:44;;;;;;;4.23;3.87;;;15.20;99.90;;;;;;4973329;28;20431;-65
2023/10/06 02:29:22;;;;;;;5.77;3.97;;;15.20;99.90;;;;;;4973711;28;20496;-65
2023/10/06 02:31:52;;;;;;;4.80;4.33;;;15.20;99.90;;;;;;4973756;28;20422;-64
2023/10/06 02:34:29;;;;;;;4.50;4.10;;;15.20;99.90;;;;;;4974519;28;20423;-65
2023/10/06 02:36:56;;;;;;;4.90;4.40;;;15.20;99.90;;;;;;4973630;28;20481;-64
2023/10/06 02:39:26;;;;;;;4.73;3.90;;;15.20;99.90;;;;;;4974537;28;20502;-65
2023/10/06 02:41:57;;;;;;;5.77;4.90;;;15.20;99.90;;;;;;4973863;28;20441;-66
2023/10/06 02:44:24;;;;;;;6.17;4.70;;;15.20;99.90;;;;;;4974788;28;20403;-65
2023/10/06 02:46:53;;;;;;;4.57;4.17;;;15.20;99.90;;;;;;4973122;28;20921;-65
2023/10/06 02:49:31;;;;;;;5.40;4.67;;;15.20;99.90;;;;;;4973458;28;20457;-62
2023/10/06 02:52:00;;;;;;;5.20;4.30;;;15.20;99.90;;;;;;4959726;28;20827;-65
2023/10/06 02:54:30;;;;;;;5.70;4.40;;;15.20;99.90;;;;;;4973629;28;20435;-65
2023/10/06 02:56:56;;;;;;;5.43;4.73;;;15.20;99.90;;;;;;4973408;28;20526;-65
2023/10/06 02:59:29;;;;;;;6.47;4.70;;;15.20;99.90;;;;;;4974189;28;20429;-65
2023/10/06 03:02:06;;;;;;;5.73;4.90;;;15.20;99.90;;;;;;4972677;28;20527;-65
2023/10/06 03:04:36;;;;;;;5.80;5.30;;;15.30;99.90;;;;;;4972924;28;20460;-65
2023/10/06 03:07:05;;;;;;;6.20;5.37;;;15.40;99.90;;;;;;4974107;28;20415;-64
2023/10/06 03:09:38;;;;;;;5.43;4.93;;;15.40;99.90;;;;;;4973267;28;20828;-65
2023/10/06 03:12:12;;;;;;;4.70;4.30;;;15.40;99.90;;;;;;4973676;28;20810;-66
2023/10/06 03:14:38;;;;;;;5.60;5.10;;;15.40;99.90;;;;;;4973409;28;20819;-66
2023/10/06 03:17:09;;;;;;;4.70;4.40;;;15.40;99.90;;;;;;4971544;28;20514;-65
2023/10/06 03:19:41;;;;;;;6.40;5.43;;;15.40;99.90;;;;;;4973115;28;20465;-64
2023/10/06 03:22:09;;;;;;;5.40;5.00;;;15.40;99.90;;;;;;4973724;28;20895;-65
2023/10/06 03:24:52;;;;;;;5.80;4.90;;;15.40;99.90;;;;;;4972944;28;20771;-65
2023/10/06 03:27:18;;;;;;;6.53;4.40;;;15.40;99.90;;;;;;4971987;28;20979;-66
2023/10/06 03:30:07;;;;;;;4.97;4.47;;;15.50;99.90;;;;;;4972985;28;20427;-65
2023/10/06 03:32:39;;;;;;;5.63;5.13;;;15.50;99.90;;;;;;4954853;29;20447;-65
2023/10/06 03:35:21;;;;;;;5.50;4.63;;;15.50;99.90;;;;;;4948031;28;20823;-66
2023/10/06 03:37:56;;;;;;;4.40;3.97;;;15.60;99.90;;;;;;4972468;28;20986;-65
2023/10/06 03:43:33;;;;;;;6.77;5.70;;;15.60;99.90;;;;;;4931732;29;20428;-66
2023/10/06 03:45:59;;;;;;;5.70;5.10;;;15.60;99.90;;;;;;4967891;28;20415;-66
2023/10/06 03:48:29;;;;;;;4.80;4.30;;;15.60;99.90;;;;;;4971762;28;20506;-66
2023/10/06 03:50:56;;;;;;;4.70;4.27;;;15.60;99.90;;;;;;4972289;28;20850;-65
2023/10/06 03:53:24;;;;;;;4.63;4.23;;;15.60;99.90;;;;;;4973590;28;20773;-66
2023/10/06 03:55:50;;;;;;;5.03;4.63;;;15.60;99.90;;;;;;4972701;28;20453;-65
2023/10/06 03:58:18;;;;;;;6.30;4.80;;;15.60;99.90;;;;;;4973219;28;20522;-66
2023/10/06 04:00:47;;;;;;;7.23;4.67;;;15.60;99.90;;;;;;4955233;28;20463;-65
2023/10/06 04:03:17;;;;;;;6.67;5.00;;;15.60;99.90;;;;;;4972731;28;20792;-65
2023/10/06 04:05:48;;;;;;;5.07;4.37;;;15.60;99.90;;;;;;4972531;28;20886;-65
2023/10/06 04:08:16;;;;;;;6.80;4.13;;;15.50;99.90;;;;;;4973074;28;20459;-65
2023/10/06 04:10:43;;;;;;;5.60;5.10;;;15.50;99.90;;;;;;4972536;28;20431;-65
2023/10/06 04:13:10;;;;;;;5.40;4.90;;;15.50;99.90;;;;;;4974584;28;20477;-66
2023/10/06 04:15:40;;;;;;;5.33;4.80;;;15.50;99.90;;;;;;4976600;28;20431;-65
2023/10/06 04:18:09;;;;;;;4.90;4.50;;;15.50;99.90;;;;;;4975998;28;20559;-65
2023/10/06 04:20:42;;;;;;;6.83;4.87;;;15.50;99.90;;;;;;4976687;28;20431;-66
2023/10/06 04:23:11;;;;;;;6.87;6.17;;;15.50;99.90;;;;;;4976715;28;20399;-65
2023/10/06 04:25:38;;;;;;;5.47;4.43;;;15.50;99.90;;;;;;4976047;28;20490;-61
2023/10/06 04:28:08;;;;;;;5.40;4.33;;;15.50;99.90;;;;;;4976349;28;20528;-70
2023/10/06 04:30:38;;;;;;;5.03;4.33;;;15.50;99.90;;;;;;4976127;28;20772;-68
2023/10/06 04:33:09;;;;;;;7.20;4.50;;;15.50;99.90;;;;;;4976182;28;20771;-67
2023/10/06 04:35:40;;;;;;;5.40;4.90;;;15.50;99.90;;;;;;4976136;28;20443;-68
2023/10/06 04:38:06;;;;;;;5.33;4.23;;;15.50;99.90;;;;;;4975923;28;20411;-68
2023/10/06 04:40:35;;;;;;;10.37;5.90;;;15.60;99.90;;;;;;4976708;28;20411;-68
2023/10/06 04:43:01;;;;;;;8.27;4.93;;;15.60;99.90;;;;;;4975208;28;20426;-61
2023/10/06 04:45:31;;;;;;;6.80;4.80;;;15.50;99.90;;;;;;4975950;28;20543;-63
2023/10/06 04:48:00;;;;;;;6.90;5.60;;;15.50;99.90;;;;;;4974269;28;20987;-62
2023/10/06 04:50:27;;;;;;;5.47;4.10;;;15.50;99.90;;;;;;4976532;28;20439;-63
2023/10/06 04:52:54;;;;;;;4.40;4.00;;;15.50;99.90;;;;;;4974458;28;20419;-63
2023/10/06 04:55:20;;;;;;;5.00;4.60;;;15.50;99.90;;;;;;4966248;28;20431;-64
2023/10/06 04:57:47;;;;;;;5.57;5.17;;;15.50;99.90;;;;;;4956132;28;20432;-63
2023/10/06 05:00:15;;;;;;;5.50;4.03;;;15.50;99.90;;;;;;4963861;28;20770;-63
2023/10/06 05:02:44;;;;;;;4.90;4.23;;;15.60;99.90;;;;;;4975457;28;20510;-62
2023/10/06 05:05:16;;;;;;;4.57;4.17;;;15.60;99.90;;;;;;4963740;28;20758;-63
2023/10/06 05:07:42;;;;;;;5.10;4.43;;;15.60;99.90;;;;;;4956153;28;20459;-62
2023/10/06 05:10:09;;;;;;;6.23;4.60;;;15.60;99.90;;;;;;4964849;28;20419;-63
2023/10/06 05:12:37;;;;;;;7.30;4.20;;;15.60;99.90;;;;;;4972629;28;20231;-63
2023/10/06 05:15:07;;;;;;;6.10;4.97;;;15.60;99.90;;;;;;4939072;29;20420;-63
2023/10/06 05:17:34;;;;;;;5.83;3.80;;;15.60;99.90;;;;;;4967881;28;20839;-63
2023/10/06 05:20:01;;;;;;;6.70;4.10;;;15.60;99.90;;;;;;4971167;28;20511;-63
2023/10/06 05:22:26;;;;;;;4.80;4.30;;;15.60;99.90;;;;;;4966392;28;20502;-63
2023/10/06 05:24:52;;;;;;;4.80;4.20;;;15.60;99.90;;;;;;4969522;28;20845;-63
2023/10/06 05:27:19;;;;;;;5.67;4.90;;;15.60;99.90;;;;;;4973091;28;20216;-62
2023/10/06 05:29:46;;;;;;;6.10;4.90;;;15.60;99.90;;;;;;4975218;28;20526;-62
2023/10/06 05:32:13;;;;;;;6.53;3.97;;;15.60;99.90;;;;;;4975086;28;20463;-62
2023/10/06 05:34:40;;;;;;;5.83;3.93;;;15.60;99.90;;;;;;4975348;28;20423;-63
2023/10/06 05:37:08;;;;;;;5.13;4.60;;;15.70;99.90;;;;;;4974609;28;20904;-63
2023/10/06 05:39:40;;;;;;;6.70;4.20;;;15.70;99.90;;;;;;4975748;28;20424;-63
2023/10/06 05:42:08;;;;;;;5.30;4.20;;;15.70;99.90;;;;;;4972555;28;20427;-63
2023/10/06 05:44:36;;;;;;;4.77;4.13;;;15.70;99.90;;;;;;4948076;28;20435;-63
2023/10/06 05:47:02;;;;;;;6.93;4.10;;;15.70;99.90;;;;;;4960870;28;20511;-63
2023/10/06 05:49:32;;;;;;;8.53;5.10;;;15.60;99.90;;;;;;4967363;28;20478;-63
2023/10/06 05:51:59;;;;;;;4.53;4.13;;;15.70;99.90;;;;;;4972584;28;20435;-63
2023/10/06 05:54:26;;;;;;;4.30;4.00;;;15.70;99.90;;;;;;4972175;28;20420;-71
2023/10/06 05:56:53;;;;;;;4.93;4.43;;;15.90;99.90;;;;;;4974656;28;20506;-71
2023/10/06 05:59:21;;;;;;;7.30;4.53;;;16.10;99.90;;;;;;4974496;28;20435;-71
2023/10/06 06:01:56;;;;;;;4.60;4.30;;;16.50;99.90;;;;;;4973467;28;20481;-70
2023/10/06 06:04:27;;;;;;;4.43;4.13;;;16.80;99.90;;;;;;4973111;28;20434;-68
2023/10/06 06:06:57;;;;;;;5.80;4.43;;;17.00;99.90;;;;;;4974194;28;20458;-67
2023/10/06 06:09:24;;;;;;;4.20;3.90;;;17.30;99.90;;;;;;4954345;28;20451;-66
2023/10/06 06:11:50;;;;;;;4.80;4.40;;;17.40;99.90;;;;;;4955077;28;20784;-67
2023/10/06 06:14:20;;;;;;;5.70;4.20;;;17.60;99.90;;;;;;4974231;28;20554;-67
2023/10/06 06:16:46;;;;;;;4.60;4.17;;;17.80;99.90;;;;;;4967637;28;20823;-63
2023/10/06 06:19:12;;;;;;;4.20;3.90;;;17.90;99.90;;;;;;4962583;28;20417;-67
2023/10/06 06:21:38;;;;;;;5.47;4.97;;;18.00;99.90;;;;;;4971436;28;20932;-68
2023/10/06 06:24:08;;;;;;;6.10;4.80;;;18.20;99.90;;;;;;4968346;28;21246;-67
2023/10/06 06:26:37;;;;;;;4.67;4.27;;;18.20;99.90;;;;;;4974120;28;20431;-67
2023/10/06 06:29:08;;;;;;;4.43;4.03;;;18.20;99.90;;;;;;4973640;28;20451;-68
2023/10/06 06:31:34;;;;;;;7.80;4.67;;;18.20;99.90;;;;;;4974537;28;20477;-68
2023/10/06 06:34:04;;;;;;;5.07;4.30;;;18.30;99.90;;;;;;4956730;28;20411;-68
2023/10/06 06:36:33;;;;;;;4.90;4.40;;;18.30;99.90;;;;;;4970901;28;20452;-68
2023/10/06 06:38:59;;;;;;;4.40;3.87;;;18.40;99.90;;;;;;4956680;28;20412;-68
2023/10/06 06:41:25;;;;;;;4.50;4.10;;;18.40;99.90;;;;;;4969869;28;20454;-67
2023/10/06 06:43:58;;;;;;;5.23;4.00;;;18.50;99.90;;;;;;4960847;28;20447;-68
2023/10/06 06:46:26;;;;;;;4.73;4.30;;;18.50;99.90;;;;;;4974213;28;20508;-67
2023/10/06 06:48:55;;;;;;;6.13;4.30;;;18.60;99.90;;;;;;4972163;28;20812;-67
2023/10/06 06:51:27;;;;;;;5.57;4.50;;;18.60;99.90;;;;;;4972489;28;20431;-67
2023/10/06 06:53:57;;;;;;;4.60;4.30;;;18.70;99.90;;;;;;4969210;28;20472;-67
2023/10/06 06:56:29;;;;;;;4.17;3.77;;;18.70;99.90;;;;;;4954651;29;20409;-67
2023/10/06 06:58:59;;;;;;;4.63;4.23;;;18.80;99.90;;;;;;4956097;28;20868;-67
2023/10/06 07:01:25;;;;;;;4.50;4.00;;;18.80;99.90;;;;;;4956048;28;20429;-67
2023/10/06 07:03:51;;;;;;;4.47;4.00;;;18.90;99.90;;;;;;4972373;28;20454;-73
2023/10/06 07:06:16;;;;;;;7.50;4.33;;;18.90;99.90;;;;;;4973662;28;20172;-74
2023/10/06 07:08:46;;;;;;;6.37;3.30;;;18.90;99.90;;;;;;4973384;28;20247;-68
2023/10/06 07:11:13;;;;;;;4.17;3.77;;;18.70;99.90;;;;;;4971282;28;20189;-71
2023/10/06 07:13:39;;;;;;;4.80;4.13;;;18.50;99.90;;;;;;4970910;28;20507;-68
2023/10/06 07:16:05;;;;;;;5.93;5.40;;;18.30;99.90;;;;;;4972767;28;20448;-67
2023/10/06 07:18:32;;;;;;;5.20;4.10;;;18.20;99.90;;;;;;4966313;28;20433;-67
2023/10/06 07:20:58;;;;;;;5.33;4.07;;;18.00;99.90;;;;;;4967224;28;20431;-67
2023/10/06 07:23:24;;;;;;;4.53;4.10;;;17.80;99.90;;;;;;4964298;28;20795;-67
2023/10/06 07:25:50;;;;;;;8.20;5.50;;;17.70;99.90;;;;;;4965712;28;20211;-64
2023/10/06 07:28:17;;;;;;;6.47;5.10;;;17.60;99.90;;;;;;4971108;28;20259;-73
2023/10/06 07:30:43;;;;;;;7.03;5.60;;;17.40;99.90;;;;;;4963787;28;20438;-69
2023/10/06 07:33:09;;;;;;;6.30;5.80;;;17.30;99.90;;;;;;4969144;28;20511;-68
2023/10/06 07:35:45;;;;;;;10.07;5.90;;;17.30;99.90;;;;;;4970028;28;20188;-75
2023/10/06 07:38:11;;;;;;;12.80;9.43;;;17.30;99.90;;;;;;4968989;28;21001;-69
2023/10/06 07:40:38;;;;;;;6.73;6.03;;;17.30;99.90;;;;;;4965404;28;20423;-70
2023/10/06 07:43:05;;;;;;;4.67;4.27;;;17.20;99.90;;;;;;4966893;28;20778;-75
2023/10/06 07:45:32;;;;;;;6.57;4.90;;;17.10;99.90;;;;;;4963292;28;20553;-71
2023/10/06 07:47:58;;;;;;;6.90;5.67;;;17.00;99.90;;;;;;4970098;28;20447;-72
2023/10/06 07:50:28;;;;;;;8.23;7.43;;;16.90;99.90;;;;;;4968025;28;20412;-72
2023/10/06 07:52:55;;;;;;;6.20;4.50;;;16.90;99.90;;;;;;4975144;28;20172;-71
2023/10/06 07:55:23;;;;;;;5.20;4.57;;;16.90;99.90;;;;;;4947149;28;20424;-72
2023/10/06 07:57:49;;;;;;;6.63;4.70;;;16.90;99.90;;;;;;4968837;28;20412;-72
2023/10/06 08:00:29;;;;;;;5.47;5.03;;;16.90;99.90;;;;;;4973396;28;20467;-74
2023/10/06 08:03:00;;;;;;;8.17;7.47;;;17.00;99.90;;;;;;4974989;28;20407;-72
2023/10/06 08:05:26;;;;;;;8.70;6.57;;;17.10;99.90;;;;;;4968377;28;20431;-72
2023/10/06 08:07:52;;;;;;;8.37;6.97;;;17.10;99.90;;;;;;4975514;28;20456;-64
2023/10/06 08:10:18;;;;;;;9.00;6.03;;;17.20;99.90;;;;;;4964862;28;20502;-73
2023/10/06 08:12:47;;;;;;;9.50;6.37;;;17.20;99.90;;;;;;4975583;28;20716;-72
2023/10/06 08:15:17;;;;;;;4.83;4.33;;;17.30;99.90;;;;;;4975607;28;20431;-69
2023/10/06 08:17:48;;;;;;;9.13;6.67;;;17.30;99.90;;;;;;4976617;28;20429;-69
2023/10/06 08:20:15;;;;;;;5.87;5.27;;;17.20;99.90;;;;;;4975723;28;20420;-71
2023/10/06 08:22:47;;;;;;;5.40;3.97;;;17.30;99.90;;;;;;4976941;28;20412;-72
2023/10/06 08:25:14;;;;;;;4.90;4.60;;;17.20;99.90;;;;;;4975321;28;20408;-72
2023/10/06 08:27:41;;;;;;;6.70;4.53;;;17.20;99.90;;;;;;4972778;28;20472;-72
2023/10/06 08:30:19;;;;;;;5.93;5.23;;;17.20;99.90;;;;;;4975187;28;20435;-72
2023/10/06 08:32:46;;;;;;;6.33;5.43;;;17.30;99.90;;;;;;4966620;28;20419;-73
2023/10/06 08:35:15;;;;;;;5.37;4.67;;;17.30;99.90;;;;;;4971769;28;20426;-72
2023/10/06 08:37:45;;;;;;;8.10;4.07;;;17.30;99.90;;;;;;4964776;28;20514;-74
2023/10/06 08:40:17;;;;;;;6.80;6.20;;;17.30;99.90;;;;;;4975348;28;20423;-72
2023/10/06 08:42:47;;;;;;;36.33;24.40;;;17.30;99.90;;;;;;4975419;28;20486;-72
2023/10/06 08:45:19;;;;;;;35.33;28.07;;;17.30;99.90;;;;;;4975584;28;20431;-73
2023/10/06 08:47:47;;;;;;;6.73;6.00;;;17.40;99.90;;;;;;4959874;28;20455;-71
2023/10/06 08:50:15;;;;;;;6.33;5.33;;;17.50;99.90;;;;;;4975737;28;20791;-71
2023/10/06 08:52:45;;;;;;;5.50;4.97;;;17.60;99.90;;;;;;4976036;28;20420;-71
2023/10/06 08:55:15;;;;;;;5.17;4.77;;;17.70;99.90;;;;;;4974966;28;20753;-72
2023/10/06 08:57:45;;;;;;;12.50;9.90;;;17.80;99.90;;;;;;4964241;28;20439;-71
2023/10/06 09:00:15;;;;;;;5.27;4.63;;;17.90;99.90;;;;;;4969811;28;21026;-72
2023/10/06 09:02:46;;;;;;;7.13;6.00;;;18.10;99.90;;;;;;4975693;28;20498;-72
2023/10/06 09:05:13;;;;;;;5.60;5.10;;;18.20;99.90;;;;;;4953194;28;20770;-72
2023/10/06 09:08:00;;;;;;;5.67;5.17;;;18.30;99.90;;;;;;4970851;28;20487;-71
2023/10/06 09:10:29;;;;;;;4.30;3.90;;;18.30;99.90;;;;;;4973509;28;20424;-72
2023/10/06 09:13:11;;;;;;;4.80;4.30;;;18.40;99.90;;;;;;4961694;28;20420;-63
2023/10/06 09:15:43;;;;;;;7.80;3.80;;;18.40;99.90;;;;;;4968413;28;20565;-73
2023/10/06 09:18:15;;;;;;;4.83;4.40;;;18.50;99.90;;;;;;4974795;28;20408;-72
2023/10/06 09:20:41;;;;;;;4.27;3.93;;;18.70;99.90;;;;;;4975886;28;20416;-72
2023/10/06 09:23:07;;;;;;;4.97;4.47;;;18.90;99.90;;;;;;4975607;28;20447;-72
2023/10/06 09:25:45;;;;;;;5.57;4.30;;;19.00;99.90;;;;;;4975930;28;20543;-72
2023/10/06 09:28:13;;;;;;;7.03;6.43;;;19.30;99.90;;;;;;4974985;28;20370;-71
2023/10/06 09:31:05;;;;;;;60.17;48.23;;;19.50;99.90;;;;;;4975658;28;20459;-72
2023/10/06 09:33:37;;;;;;;9.20;8.30;;;19.70;99.90;;;;;;4975696;28;21095;-71
2023/10/06 09:36:07;;;;;;;7.07;6.07;;;19.90;99.90;;;;;;4974634;28;20419;-70
2023/10/06 09:38:34;;;;;;;5.23;4.73;;;20.00;99.90;;;;;;4975816;28;20428;-71
2023/10/06 09:40:59;;;;;;;4.40;4.00;;;20.10;99.90;;;;;;4975025;28;20538;-71
2023/10/06 09:43:27;;;;;;;10.73;6.73;;;20.20;99.20;;;;;;4974614;28;20981;-72
2023/10/06 09:45:55;;;;;;;6.80;5.07;;;20.40;99.90;;;;;;4975526;28;20183;-70
2023/10/06 09:48:26;;;;;;;5.33;4.50;;;20.60;99.10;;;;;;4957418;28;20802;-71
2023/10/06 09:50:54;;;;;;;5.67;5.07;;;20.70;98.50;;;;;;4975647;28;20392;-72
2023/10/06 09:53:20;;;;;;;6.30;4.53;;;20.80;98.20;;;;;;4974784;28;20412;-72
2023/10/06 09:55:49;;;;;;;7.23;4.83;;;20.90;97.40;;;;;;4958113;28;20414;-72
2023/10/06 09:58:17;;;;;;;5.13;4.67;;;21.00;97.50;;;;;;4974625;28;20416;-72
2023/10/06 10:00:44;;;;;;;5.50;5.00;;;21.10;98.60;;;;;;4975546;28;20424;-72
2023/10/06 10:03:14;;;;;;;5.13;4.63;;;21.40;97.30;;;;;;4973488;28;20490;-72
2023/10/06 10:05:41;;;;;;;6.30;4.80;;;21.60;96.80;;;;;;4975597;28;20438;-72
2023/10/06 10:08:07;;;;;;;6.50;5.00;;;21.70;94.80;;;;;;4974421;28;20486;-72
2023/10/06 10:10:39;;;;;;;8.47;5.40;;;21.90;94.80;;;;;;4974176;28;20408;-73
2023/10/06 10:13:31;;;;;;;5.37;4.87;;;22.00;94.30;;;;;;4974244;28;20947;-72
2023/10/06 10:16:03;;;;;;;6.77;5.27;;;22.10;94.40;;;;;;4975108;28;20404;-73
2023/10/06 10:18:34;;;;;;;6.43;5.83;;;22.30;95.70;;;;;;4957660;28;20507;-72
2023/10/06 10:21:01;;;;;;;7.67;4.77;;;22.40;94.50;;;;;;4972562;28;20439;-71
2023/10/06 10:23:31;;;;;;;7.40;5.50;;;22.30;93.90;;;;;;4974942;28;20436;-72
2023/10/06 10:26:22;;;;;;;7.17;6.43;;;22.20;94.70;;;;;;4974837;28;20404;-71
2023/10/06 10:29:12;;;;;;;7.93;5.00;;;22.00;93.80;;;;;;4974900;28;20600;-72
2023/10/06 10:31:41;;;;;;;7.27;5.07;;;21.80;93.70;;;;;;4974605;28;20424;-72
2023/10/06 10:34:08;;;;;;;5.47;4.50;;;21.70;94.20;;;;;;4973834;28;20784;-73
2023/10/06 10:36:34;;;;;;;7.70;6.20;;;21.40;93.90;;;;;;4974578;28;20433;-67
2023/10/06 10:39:12;;;;;;;9.87;5.00;;;21.30;94.40;;;;;;4974028;28;20412;-67
2023/10/06 10:41:40;;;;;;;5.60;4.90;;;21.10;94.40;;;;;;4974418;28;20418;-67
2023/10/06 10:44:08;;;;;;;5.50;5.00;;;21.10;95.10;;;;;;4956531;28;20423;-67
2023/10/06 10:46:47;;;;;;;6.43;5.63;;;21.30;95.10;;;;;;4973665;28;20498;-67
2023/10/06 10:49:13;;;;;;;6.67;5.23;;;21.40;94.50;;;;;;4968044;28;20502;-67
2023/10/06 10:52:15;;;;;;;5.47;5.07;;;21.40;95.40;;;;;;4969329;28;20945;-67
2023/10/06 10:54:42;;;;;;;141.37;121.93;;;21.30;94.70;;;;;;4957858;28;20203;-68
2023/10/06 10:57:19;;;;;;;42.97;37.23;;;21.20;95.20;;;;;;4971874;28;20424;-67
2023/10/06 11:02:57;;;;;;;7.70;5.80;;;21.00;95.40;;;;;;4972581;28;20451;-67
2023/10/06 11:05:23;;;;;;;7.17;5.20;;;20.90;95.00;;;;;;4953594;28;20466;-68
2023/10/06 11:07:59;;;;;;;6.70;5.50;;;20.80;95.20;;;;;;4967005;28;20491;-67
2023/10/06 11:10:26;;;;;;;6.13;4.77;;;20.70;94.80;;;;;;4960913;28;20177;-67
2023/10/06 11:13:19;;;;;;;5.70;5.30;;;20.60;95.80;;;;;;4964997;28;20438;-67
2023/10/06 11:15:46;;;;;;;6.13;5.03;;;20.70;95.40;;;;;;4973128;28;20827;-67
2023/10/06 11:18:13;;;;;;;7.97;5.93;;;20.70;96.60;;;;;;4964042;28;20417;-67
2023/10/06 11:20:39;;;;;;;5.67;4.90;;;20.70;95.40;;;;;;4954622;28;20765;-67
2023/10/06 11:23:06;;;;;;;5.70;4.80;;;20.70;95.90;;;;;;4969579;28;20507;-67
2023/10/06 11:25:35;;;;;;;4.60;4.20;;;20.80;96.30;;;;;;4968113;28;20475;-67
2023/10/06 11:28:09;;;;;;;6.33;5.10;;;21.00;96.40;;;;;;4953976;28;20486;-67
2023/10/06 11:30:38;;;;;;;7.17;5.10;;;21.20;97.10;;;;;;4959491;28;20431;-67
2023/10/06 11:33:06;;;;;;;7.67;4.33;;;21.60;96.30;;;;;;4959979;28;20909;-67
2023/10/06 11:35:33;;;;;;;6.60;4.80;;;21.80;95.50;;;;;;4949748;28;20425;-67
2023/10/06 11:38:01;;;;;;;6.30;4.40;;;22.00;94.70;;;;;;4959650;28;20435;-67
2023/10/06 11:40:27;;;;;;;6.90;4.43;;;22.20;94.60;;;;;;4957234;28;20436;-67
2023/10/06 11:42:55;;;;;;;6.23;4.70;;;22.30;94.60;;;;;;4950734;28;20472;-67
2023/10/06 11:45:30;;;;;;;5.60;4.93;;;22.50;93.40;;;;;;4955833;28;20456;-67
2023/10/06 11:47:57;;;;;;;4.93;4.53;;;22.60;93.40;;;;;;4962458;28;20214;-67
2023/10/06 11:50:25;;;;;;;5.70;5.20;;;22.70;93.60;;;;;;4950185;28;20699;-67
2023/10/06 11:52:52;;;;;;;6.70;5.20;;;22.80;92.20;;;;;;4958309;28;20442;-66
2023/10/06 11:55:31;;;;;;;5.43;5.03;;;22.80;92.10;;;;;;4969525;28;20489;-67
2023/10/06 11:58:00;;;;;;;6.47;4.67;;;22.80;92.60;;;;;;4968108;28;20483;-66
2023/10/06 12:00:40;;;;;;;5.10;4.70;;;22.70;91.70;;;;;;4967351;28;20451;-67
2023/10/06 12:03:11;;;;;;;4.40;4.07;;;22.70;91.80;;;;;;4968695;28;20842;-67
2023/10/06 12:05:41;;;;;;;5.00;4.50;;;22.70;92.20;;;;;;4965618;28;20423;-67
2023/10/06 12:08:12;;;;;;;5.83;4.73;;;22.50;91.00;;;;;;4966722;28;20797;-71
2023/10/06 12:10:51;;;;;;;8.80;4.50;;;22.40;91.20;;;;;;4969500;28;20452;-69
2023/10/06 12:13:19;;;;;;;4.00;3.67;;;22.30;91.10;;;;;;4967329;28;20554;-67
2023/10/06 12:15:46;;;;;;;6.00;4.50;;;22.20;91.70;;;;;;4969181;28;20424;-70
2023/10/06 12:18:14;;;;;;;4.30;4.00;;;22.00;92.00;;;;;;4951633;28;20856;-69
2023/10/06 12:20:40;;;;;;;36.63;29.63;;;22.00;92.00;;;;;;4969298;28;20431;-71
2023/10/06 12:23:06;;;;;;;16.30;13.03;;;21.90;91.80;;;;;;4968560;28;20424;-70
2023/10/06 12:25:33;;;;;;;5.23;4.73;;;21.80;92.30;;;;;;4967729;28;20502;-71
2023/10/06 12:28:00;;;;;;;5.20;3.93;;;21.70;91.40;;;;;;4967105;28;20483;-71
2023/10/06 12:30:28;;;;;;;6.10;5.03;;;21.60;91.90;;;;;;4968303;28;20439;-71
2023/10/06 12:32:54;;;;;;;4.20;3.80;;;21.50;91.70;;;;;;4969464;28;20415;-71
2023/10/06 12:35:28;;;;;;;4.53;4.13;;;21.40;92.10;;;;;;4971834;28;20416;-70
2023/10/06 12:37:54;;;;;;;5.30;4.80;;;21.30;92.30;;;;;;4973090;28;20408;-70
2023/10/06 12:40:20;;;;;;;5.50;4.73;;;21.20;92.60;;;;;;4972079;28;20423;-71
2023/10/06 12:42:46;;;;;;;4.30;3.93;;;21.10;92.30;;;;;;4954432;28;20758;-70
2023/10/06 12:45:17;;;;;;;6.30;4.63;;;21.00;92.70;;;;;;4972424;28;20256;-67
2023/10/06 12:47:47;;;;;;;5.53;4.73;;;21.00;92.90;;;;;;4960063;28;20476;-68
2023/10/06 12:50:16;;;;;;;14.53;4.57;;;21.10;93.60;;;;;;4962633;28;20749;-73
2023/10/06 12:52:43;;;;;;;5.07;4.57;;;21.20;93.40;;;;;;4965151;28;20430;-69
2023/10/06 12:55:12;;;;;;;5.90;5.07;;;21.20;93.70;;;;;;4939175;28;20412;-70
2023/10/06 12:57:38;;;;;;;4.60;4.20;;;21.20;93.60;;;;;;4971696;28;20535;-70
2023/10/06 13:00:09;;;;;;;5.10;4.60;;;21.30;93.40;;;;;;4937946;28;20424;-69
2023/10/06 13:02:36;;;;;;;4.30;3.90;;;21.30;93.50;;;;;;4970178;28;20460;-68
2023/10/06 13:05:13;;;;;;;4.20;3.90;;;21.30;93.00;;;;;;4971544;28;21308;-69
2023/10/06 13:07:40;;;;;;;4.50;4.10;;;21.20;93.20;;;;;;4972369;28;20399;-67